Time;durP1;ratioP1;P1;durP2;ratioP2;P2;SDS_P1;SDS_P2;PMS_P1;PMS_P2;Temp;Humidity;BMP_temperature;BMP_pressure;BME280_temperature;BME280_humidity;BME280_pressure;Samples;Min_cycle;Max_cycle;Signal;HPM_P1;HPM_P2
2023/01/11 00:00:00;;;;;;;4.55;1.40;;;22.80;99.90;;;;;;5033013;28;20194;-83
2023/01/11 00:02:33;;;;;;;2.80;1.20;;;22.80;99.90;;;;;;5028916;28;20214;-82
2023/01/11 00:05:04;;;;;;;4.30;1.30;;;22.70;99.90;;;;;;5024786;28;20565;-83
2023/01/11 00:07:35;;;;;;;5.32;1.60;;;22.70;99.90;;;;;;5033400;28;20526;-83
2023/01/11 00:10:07;;;;;;;3.50;1.48;;;22.70;99.90;;;;;;5033223;28;20201;-88
2023/01/11 00:12:38;;;;;;;4.40;1.30;;;22.60;99.90;;;;;;5032704;28;20209;-83
2023/01/11 00:15:12;;;;;;;4.03;1.52;;;22.60;99.90;;;;;;5032907;28;20392;-84
2023/01/11 00:17:43;;;;;;;3.47;1.25;;;22.60;99.90;;;;;;5033296;28;20197;-77
2023/01/11 00:20:14;;;;;;;5.88;1.50;;;22.60;99.90;;;;;;5033273;28;20196;-76
2023/01/11 00:22:46;;;;;;;4.50;1.75;;;22.60;99.90;;;;;;5032510;28;20214;-74
2023/01/11 00:25:18;;;;;;;4.93;1.48;;;22.60;99.90;;;;;;5017216;28;20203;-75
2023/01/11 00:27:49;;;;;;;4.25;1.55;;;22.50;99.90;;;;;;5019635;28;20252;-75
2023/01/11 00:30:22;;;;;;;3.22;1.50;;;22.50;99.90;;;;;;5031890;28;20210;-80
2023/01/11 00:32:57;;;;;;;3.85;1.77;;;22.50;99.90;;;;;;5031308;28;20202;-84
2023/01/11 00:35:29;;;;;;;3.30;1.30;;;22.50;99.90;;;;;;5032014;28;20229;-79
2023/01/11 00:38:00;;;;;;;1.92;1.13;;;22.50;99.90;;;;;;5031152;28;20212;-77
2023/01/11 00:40:31;;;;;;;4.47;1.40;;;22.50;99.90;;;;;;5031613;28;20697;-78
2023/01/11 00:48:38;;;;;;;1.90;1.13;;;22.50;99.90;;;;;;5028584;28;20399;-78
2023/01/11 00:51:09;;;;;;;3.10;1.48;;;22.50;99.90;;;;;;5028157;28;20226;-79
2023/01/11 00:53:40;;;;;;;3.00;1.38;;;22.50;99.90;;;;;;5029135;28;20228;-78
2023/01/11 00:56:11;;;;;;;4.40;1.35;;;22.50;99.90;;;;;;5036975;28;20201;-77
2023/01/11 00:58:42;;;;;;;4.18;1.88;;;22.50;99.90;;;;;;5035632;28;20289;-78
2023/01/11 01:01:15;;;;;;;2.83;1.40;;;22.50;99.90;;;;;;5036850;28;20218;-77
2023/01/11 01:03:46;;;;;;;3.33;1.50;;;22.60;99.90;;;;;;5033159;28;20199;-77
2023/01/11 01:06:17;;;;;;;3.53;1.45;;;22.60;99.90;;;;;;5036160;28;20194;-78
2023/01/11 01:08:49;;;;;;;5.30;1.60;;;22.60;99.90;;;;;;5035676;28;20194;-78
2023/01/11 01:11:20;;;;;;;5.53;1.65;;;22.70;99.90;;;;;;5036804;28;20205;-77
2023/01/11 01:16:41;;;;;;;2.47;1.55;;;22.70;99.90;;;;;;5031089;28;20298;-77
2023/01/11 01:19:12;;;;;;;4.90;1.88;;;22.80;99.90;;;;;;5032393;28;20240;-80
2023/01/11 01:21:43;;;;;;;2.92;1.45;;;22.80;99.90;;;;;;5029197;28;20222;-78
2023/01/11 01:24:14;;;;;;;3.35;1.42;;;22.80;99.90;;;;;;5035241;28;20195;-79
2023/01/11 01:26:45;;;;;;;4.03;1.70;;;22.80;99.90;;;;;;5035788;28;20201;-78
2023/01/11 01:29:17;;;;;;;5.60;1.67;;;22.90;99.90;;;;;;5036072;28;20191;-78
2023/01/11 01:31:50;;;;;;;5.03;1.63;;;22.90;99.90;;;;;;5034195;28;20210;-81
2023/01/11 01:34:21;;;;;;;4.90;1.55;;;22.90;99.90;;;;;;5034964;28;20681;-79
2023/01/11 01:36:52;;;;;;;3.10;1.50;;;22.90;99.90;;;;;;5035008;28;20229;-80
2023/01/11 01:39:23;;;;;;;5.18;2.17;;;23.00;99.90;;;;;;5034545;28;20206;-78
2023/01/11 01:41:54;;;;;;;3.30;1.70;;;23.00;99.90;;;;;;5034549;28;20217;-78
2023/01/11 01:44:56;;;;;;;2.92;1.65;;;23.00;99.90;;;;;;5033231;28;20559;-77
2023/01/11 01:47:39;;;;;;;4.70;1.77;;;23.00;99.90;;;;;;5026555;28;20221;-78
2023/01/11 01:52:45;;;;;;;3.22;1.90;;;23.20;99.90;;;;;;5061715;28;20235;-79
2023/01/11 01:55:23;;;;;;;2.35;1.58;;;23.20;99.90;;;;;;5058201;28;20209;-77
2023/01/11 01:57:55;;;;;;;3.33;2.00;;;23.20;99.90;;;;;;5066071;28;20561;-77
2023/01/11 02:00:26;;;;;;;4.03;1.90;;;23.30;99.90;;;;;;5073661;28;20196;-76
2023/01/11 02:03:01;;;;;;;5.05;1.77;;;23.30;99.90;;;;;;5069093;28;20228;-77
2023/01/11 02:05:32;;;;;;;4.60;1.65;;;23.40;99.90;;;;;;5073387;28;20232;-77
2023/01/11 02:08:06;;;;;;;4.47;2.15;;;23.50;99.90;;;;;;5074474;28;20197;-76
2023/01/11 02:10:38;;;;;;;4.35;1.80;;;23.60;99.90;;;;;;5072089;28;20193;-76
2023/01/11 02:13:13;;;;;;;5.30;1.70;;;23.60;99.90;;;;;;5072463;28;20207;-77
2023/01/11 02:15:44;;;;;;;3.40;2.00;;;23.70;99.90;;;;;;5073432;28;20196;-79
2023/01/11 02:18:18;;;;;;;2.70;1.80;;;23.70;99.90;;;;;;5073090;28;20213;-76
2023/01/11 02:21:05;;;;;;;2.83;2.00;;;23.80;99.90;;;;;;5072752;28;20565;-77
2023/01/11 02:24:00;;;;;;;2.90;1.70;;;23.80;99.90;;;;;;5068468;28;20204;-76
2023/01/11 02:27:19;;;;;;;4.38;1.98;;;23.80;99.90;;;;;;5036738;28;20199;-88
2023/01/11 02:30:05;;;;;;;6.53;2.08;;;23.80;99.90;;;;;;5075069;28;20193;-87
2023/01/11 02:32:44;;;;;;;5.60;2.08;;;24.00;99.90;;;;;;5075010;28;20338;-77
2023/01/11 02:35:23;;;;;;;4.82;2.10;;;23.90;99.90;;;;;;5075303;28;20192;-81
2023/01/11 02:38:01;;;;;;;3.95;1.95;;;23.90;99.90;;;;;;5075337;28;20192;-76
2023/01/11 02:40:41;;;;;;;6.30;1.73;;;24.00;99.90;;;;;;5075026;28;20248;-77
2023/01/11 02:46:13;;;;;;;5.60;1.88;;;24.00;99.90;;;;;;5075063;28;20281;-76
2023/01/11 02:48:52;;;;;;;4.28;2.17;;;24.10;99.90;;;;;;5074521;28;20280;-87
2023/01/11 02:51:28;;;;;;;3.20;1.73;;;24.20;99.90;;;;;;5074572;28;20695;-87
2023/01/11 02:54:02;;;;;;;4.78;1.90;;;24.30;99.90;;;;;;5074528;28;20185;-77
2023/01/11 02:56:39;;;;;;;5.85;2.45;;;24.40;99.90;;;;;;5074479;28;20698;-76
2023/01/11 02:59:12;;;;;;;4.00;1.90;;;24.50;99.90;;;;;;5074603;28;20640;-76
2023/01/11 03:01:54;;;;;;;4.85;2.00;;;24.50;99.90;;;;;;5074312;28;20219;-84
2023/01/11 03:04:32;;;;;;;5.47;1.90;;;24.50;99.90;;;;;;5074217;28;20196;-77
2023/01/11 03:07:16;;;;;;;8.63;2.20;;;24.60;99.90;;;;;;5074300;28;20530;-76
2023/01/11 03:09:58;;;;;;;3.83;1.80;;;24.80;99.90;;;;;;5054063;28;20194;-79
2023/01/11 03:12:54;;;;;;;4.75;2.00;;;24.90;99.90;;;;;;5054429;28;20193;-76
2023/01/11 03:15:52;;;;;;;4.10;2.10;;;25.00;99.90;;;;;;5054014;28;20277;-77
2023/01/11 03:18:47;;;;;;;3.00;1.90;;;25.10;99.90;;;;;;5067171;28;20197;-76
2023/01/11 03:21:30;;;;;;;3.05;1.92;;;25.30;99.90;;;;;;5073925;28;20185;-77
2023/01/11 03:24:09;;;;;;;2.88;1.88;;;25.40;99.90;;;;;;5073977;28;20192;-86
2023/01/11 03:26:51;;;;;;;4.18;2.17;;;25.40;99.90;;;;;;5073862;28;20197;-77
2023/01/11 03:29:32;;;;;;;2.95;2.10;;;25.50;99.90;;;;;;5072780;28;20291;-76
2023/01/11 03:32:15;;;;;;;5.93;2.00;;;25.50;99.90;;;;;;5073461;28;20549;-78
2023/01/11 03:34:55;;;;;;;4.07;2.00;;;25.50;99.90;;;;;;5074335;28;20193;-74
2023/01/11 03:37:33;;;;;;;6.28;2.28;;;25.40;99.90;;;;;;5073300;28;20550;-77
2023/01/11 03:40:10;;;;;;;3.30;1.80;;;25.50;99.90;;;;;;5074338;28;20188;-76
2023/01/11 03:43:09;;;;;;;5.93;2.10;;;25.60;99.90;;;;;;5073816;28;20216;-77
2023/01/11 03:45:41;;;;;;;2.90;1.85;;;25.70;99.90;;;;;;5053396;28;20659;-74
2023/01/11 03:48:15;;;;;;;4.65;1.98;;;25.80;99.90;;;;;;5069251;28;20655;-76
2023/01/11 03:50:51;;;;;;;6.10;2.25;;;25.90;99.90;;;;;;5053219;28;20232;-75
2023/01/11 03:53:25;;;;;;;2.97;2.03;;;25.90;99.90;;;;;;5066282;28;20188;-76
2023/01/11 03:55:59;;;;;;;3.40;1.98;;;25.90;99.90;;;;;;5070682;28;20189;-75
2023/01/11 03:58:31;;;;;;;3.67;1.95;;;26.00;99.90;;;;;;5073367;28;20203;-77
2023/01/11 04:01:03;;;;;;;3.72;2.03;;;25.80;99.90;;;;;;5073214;28;20193;-79
2023/01/11 04:03:34;;;;;;;3.30;1.80;;;25.70;99.90;;;;;;5071116;28;20224;-82
2023/01/11 04:06:07;;;;;;;5.15;2.17;;;25.70;99.90;;;;;;5073138;28;20185;-75
2023/01/11 04:08:39;;;;;;;4.93;2.20;;;25.80;99.90;;;;;;5073545;28;20185;-82
2023/01/11 04:11:10;;;;;;;2.85;2.00;;;25.70;99.90;;;;;;5073720;28;20193;-77
2023/01/11 04:13:41;;;;;;;5.32;2.22;;;25.70;99.90;;;;;;5073305;28;20624;-81
2023/01/11 04:16:12;;;;;;;3.45;2.20;;;25.60;99.90;;;;;;5072635;28;20192;-84
2023/01/11 04:18:43;;;;;;;2.83;2.00;;;25.60;99.90;;;;;;5071595;28;20211;-75
2023/01/11 04:21:16;;;;;;;7.32;2.25;;;25.70;99.90;;;;;;5071196;28;20283;-75
2023/01/11 04:23:47;;;;;;;5.63;2.15;;;25.70;99.90;;;;;;5072469;28;20299;-76
2023/01/11 04:26:18;;;;;;;4.20;2.08;;;25.80;99.90;;;;;;5069346;28;20660;-77
2023/01/11 04:28:50;;;;;;;5.13;2.20;;;25.90;99.90;;;;;;5067722;28;20592;-77
2023/01/11 04:31:21;;;;;;;4.47;2.00;;;25.90;99.90;;;;;;5072683;28;20271;-75
2023/01/11 04:33:52;;;;;;;4.57;2.00;;;25.90;99.90;;;;;;5072026;28;20189;-83
2023/01/11 04:36:25;;;;;;;2.90;1.98;;;25.80;99.90;;;;;;5072289;28;20195;-77
2023/01/11 04:38:59;;;;;;;3.58;2.10;;;25.70;99.90;;;;;;5073136;28;20188;-77
2023/01/11 04:44:14;;;;;;;2.35;2.03;;;25.80;99.90;;;;;;5027983;28;20204;-76
2023/01/11 04:46:45;;;;;;;3.25;1.90;;;25.80;99.90;;;;;;5066761;28;20200;-75
2023/01/11 04:49:16;;;;;;;4.30;2.15;;;25.80;99.90;;;;;;5071151;28;20207;-76
2023/01/11 04:51:49;;;;;;;2.67;2.03;;;25.90;99.90;;;;;;5072125;28;20239;-76
2023/01/11 04:54:21;;;;;;;4.70;2.20;;;25.90;99.90;;;;;;5072375;28;20200;-75
2023/01/11 04:56:52;;;;;;;4.47;2.50;;;25.90;99.90;;;;;;5072663;28;20225;-76
2023/01/11 04:59:23;;;;;;;4.75;2.17;;;26.00;99.90;;;;;;5072702;28;20642;-75
2023/01/11 05:01:54;;;;;;;3.95;2.17;;;25.90;99.90;;;;;;5072419;28;20189;-77
2023/01/11 05:04:26;;;;;;;5.50;2.30;;;25.90;99.90;;;;;;5072103;28;20277;-77
2023/01/11 05:06:59;;;;;;;3.80;2.05;;;26.00;99.90;;;;;;5073055;28;20211;-84
2023/01/11 05:09:30;;;;;;;3.92;2.10;;;26.10;99.90;;;;;;5071547;28;20224;-83
2023/01/11 05:12:01;;;;;;;3.75;2.10;;;25.90;99.90;;;;;;5072569;28;20276;-78
2023/01/11 05:14:33;;;;;;;3.63;2.22;;;25.90;99.90;;;;;;5071964;28;20197;-76
2023/01/11 05:17:04;;;;;;;2.95;2.03;;;25.90;99.90;;;;;;5072620;28;20195;-77
2023/01/11 05:19:35;;;;;;;4.22;2.22;;;25.90;99.90;;;;;;5071987;28;20276;-86
2023/01/11 05:22:08;;;;;;;4.18;2.13;;;26.00;99.90;;;;;;5071713;28;20190;-80
2023/01/11 05:24:39;;;;;;;4.53;2.10;;;26.00;99.90;;;;;;5072301;28;20652;-79
2023/01/11 05:27:10;;;;;;;4.32;1.90;;;26.00;99.90;;;;;;5072500;28;20195;-76
2023/01/11 05:29:42;;;;;;;2.47;1.90;;;25.70;99.90;;;;;;5072282;28;20200;-79
2023/01/11 05:32:14;;;;;;;3.17;1.80;;;25.70;99.90;;;;;;5071918;28;20186;-78
2023/01/11 05:34:45;;;;;;;3.88;2.00;;;25.70;99.90;;;;;;5072090;28;20193;-77
2023/01/11 05:37:18;;;;;;;3.83;2.10;;;25.40;99.90;;;;;;5073556;28;20185;-79
2023/01/11 05:39:49;;;;;;;3.22;1.98;;;25.20;99.90;;;;;;5076764;28;20193;-78
2023/01/11 05:42:20;;;;;;;6.40;2.15;;;25.20;99.90;;;;;;5068028;28;20694;-77
2023/01/11 05:47:38;;;;;;;4.40;2.00;;;25.20;99.90;;;;;;5075453;28;20196;-79
2023/01/11 05:50:10;;;;;;;3.35;2.05;;;25.30;99.90;;;;;;5075752;28;20311;-77
2023/01/11 05:52:43;;;;;;;4.28;1.98;;;25.40;99.90;;;;;;5075593;28;20236;-77
2023/01/11 05:55:15;;;;;;;3.22;2.45;;;25.50;99.90;;;;;;5076020;28;20185;-78
2023/01/11 05:57:46;;;;;;;5.93;1.77;;;25.60;99.90;;;;;;5075884;28;20284;-79
2023/01/11 06:00:18;;;;;;;3.72;2.35;;;25.50;99.90;;;;;;5061282;28;20289;-76
2023/01/11 06:02:49;;;;;;;3.20;1.90;;;25.60;99.90;;;;;;5075245;28;20752;-80
2023/01/11 06:05:20;;;;;;;3.53;1.73;;;25.60;99.90;;;;;;5075494;28;20207;-77
2023/01/11 06:07:55;;;;;;;3.95;1.90;;;25.50;99.90;;;;;;5075766;28;20230;-77
2023/01/11 06:10:26;;;;;;;4.35;1.88;;;25.50;99.90;;;;;;5074880;28;20188;-77
2023/01/11 06:13:25;;;;;;;2.90;1.67;;;25.40;99.90;;;;;;5071371;28;20204;-81
2023/01/11 06:15:48;;;;;;;4.22;2.05;;;25.50;99.90;;;;;;5073564;28;20208;-77
2023/01/11 06:18:19;;;;;;;4.95;2.08;;;25.50;99.90;;;;;;5073098;28;20220;-78
2023/01/11 06:20:53;;;;;;;5.07;2.00;;;25.30;99.90;;;;;;5070267;28;20218;-76
2023/01/11 06:23:27;;;;;;;5.13;2.00;;;25.20;99.90;;;;;;5071253;28;20213;-76
2023/01/11 06:25:58;;;;;;;5.25;1.90;;;25.10;99.90;;;;;;5072544;28;20196;-77
2023/01/11 06:28:29;;;;;;;3.70;2.00;;;25.00;99.90;;;;;;5075184;28;20275;-80
2023/01/11 06:31:01;;;;;;;2.65;1.77;;;24.90;99.90;;;;;;5073915;28;20201;-78
2023/01/11 06:33:33;;;;;;;3.83;1.92;;;24.80;99.90;;;;;;5073305;28;20200;-77
2023/01/11 06:36:07;;;;;;;4.30;1.88;;;24.70;99.90;;;;;;5069442;28;20279;-80
2023/01/11 06:38:41;;;;;;;4.13;1.92;;;24.70;99.90;;;;;;5072168;28;20200;-77
2023/01/11 06:41:13;;;;;;;3.63;1.98;;;24.80;99.90;;;;;;5075622;28;20211;-78
2023/01/11 06:43:45;;;;;;;4.63;2.13;;;24.70;99.90;;;;;;5077080;28;20626;-77
2023/01/11 06:46:17;;;;;;;5.63;2.40;;;24.70;99.90;;;;;;5068296;28;20192;-77
2023/01/11 06:48:49;;;;;;;5.35;2.00;;;24.70;99.90;;;;;;5071248;28;20270;-77
2023/01/11 06:51:20;;;;;;;3.95;2.22;;;24.70;99.90;;;;;;5070681;28;20237;-82
2023/01/11 06:53:53;;;;;;;5.18;1.80;;;24.70;99.90;;;;;;5071987;28;20212;-78
2023/01/11 06:56:24;;;;;;;4.57;1.80;;;24.70;99.90;;;;;;5073066;28;20201;-78
2023/01/11 06:58:55;;;;;;;2.53;1.77;;;24.60;99.90;;;;;;5070408;28;20208;-77
2023/01/11 07:01:27;;;;;;;3.20;1.67;;;24.50;99.90;;;;;;5056133;28;20192;-82
2023/01/11 07:03:58;;;;;;;4.13;1.90;;;24.60;99.90;;;;;;5070241;28;20706;-80
2023/01/11 07:06:30;;;;;;;5.03;1.70;;;24.60;99.90;;;;;;5064246;28;20656;-80
2023/01/11 07:09:04;;;;;;;5.20;1.60;;;24.50;99.90;;;;;;5072370;28;20727;-77
2023/01/11 07:11:37;;;;;;;5.32;1.95;;;24.40;99.90;;;;;;5074261;28;20196;-80
2023/01/11 07:14:10;;;;;;;3.97;2.10;;;24.50;99.90;;;;;;5072101;28;20189;-78
2023/01/11 07:16:42;;;;;;;4.47;1.88;;;24.60;99.90;;;;;;5072931;28;20206;-79
2023/01/11 07:19:13;;;;;;;4.40;1.90;;;24.60;99.90;;;;;;5071809;28;20203;-77
2023/01/11 07:21:44;;;;;;;4.18;1.80;;;24.60;99.90;;;;;;5070964;28;20558;-78
2023/01/11 07:24:17;;;;;;;5.22;1.85;;;24.50;99.90;;;;;;5071904;28;20213;-79
2023/01/11 07:26:48;;;;;;;4.88;2.00;;;24.40;99.90;;;;;;5066963;28;20220;-84
2023/01/11 07:29:20;;;;;;;3.63;1.80;;;24.30;99.90;;;;;;5066814;28;20204;-80
2023/01/11 07:31:51;;;;;;;6.55;2.00;;;24.30;99.90;;;;;;5065584;28;21347;-82
2023/01/11 07:34:22;;;;;;;4.93;1.83;;;24.30;99.90;;;;;;5068860;28;20203;-81
2023/01/11 07:36:53;;;;;;;4.00;1.92;;;24.30;99.90;;;;;;5072647;28;20205;-78
2023/01/11 07:39:27;;;;;;;5.60;2.08;;;24.10;99.90;;;;;;5073168;28;20195;-78
2023/01/11 07:44:45;;;;;;;5.55;2.10;;;24.00;99.90;;;;;;5074293;28;20231;-77
2023/01/11 07:47:16;;;;;;;5.70;2.38;;;23.90;99.90;;;;;;5066270;28;20199;-79
2023/01/11 07:52:12;;;;;;;4.10;2.13;;;23.80;99.90;;;;;;5101190;22;20244;-77
2023/01/11 07:54:46;;;;;;;7.03;2.08;;;23.90;99.90;;;;;;5079838;28;20211;-80
2023/01/11 07:57:18;;;;;;;5.50;1.80;;;23.90;99.90;;;;;;5093707;28;20196;-77
2023/01/11 07:59:49;;;;;;;5.72;2.05;;;24.00;99.90;;;;;;5090619;28;20628;-79
2023/01/11 08:02:20;;;;;;;5.72;2.00;;;24.00;99.90;;;;;;5094361;28;20191;-78
2023/01/11 08:04:52;;;;;;;6.55;1.90;;;23.90;99.90;;;;;;5072199;28;20220;-78
2023/01/11 08:07:23;;;;;;;4.18;1.73;;;23.80;99.90;;;;;;5087367;28;20196;-79
2023/01/11 08:09:56;;;;;;;4.65;1.70;;;23.60;99.90;;;;;;5079570;28;20196;-77
2023/01/11 08:15:19;;;;;;;5.30;1.90;;;23.40;99.90;;;;;;5036151;28;20209;-79
2023/01/11 08:17:50;;;;;;;2.95;1.60;;;23.30;99.90;;;;;;5090071;28;20200;-79
2023/01/11 08:20:22;;;;;;;3.92;1.80;;;23.20;99.90;;;;;;5088422;28;20195;-80
2023/01/11 08:22:53;;;;;;;4.07;1.92;;;23.20;99.90;;;;;;5083727;28;20215;-78
2023/01/11 08:25:26;;;;;;;4.75;1.90;;;23.20;99.90;;;;;;5089050;28;20196;-78
2023/01/11 08:27:57;;;;;;;6.20;1.70;;;23.10;99.90;;;;;;5091855;28;20193;-80
2023/01/11 08:30:28;;;;;;;3.42;1.40;;;23.10;99.90;;;;;;5084647;28;20198;-80
2023/01/11 08:33:02;;;;;;;5.28;2.00;;;23.00;99.90;;;;;;5092419;28;20275;-78
2023/01/11 08:35:33;;;;;;;7.00;2.30;;;23.00;99.90;;;;;;5092446;28;20223;-79
2023/01/11 08:38:05;;;;;;;3.42;1.70;;;23.00;99.90;;;;;;5091094;28;20203;-78
2023/01/11 08:40:38;;;;;;;3.67;1.73;;;22.90;99.90;;;;;;5097214;28;20210;-79
2023/01/11 08:43:09;;;;;;;5.85;2.00;;;22.80;99.90;;;;;;5092094;28;20192;-79
2023/01/11 08:45:40;;;;;;;3.70;1.70;;;22.80;99.90;;;;;;5092432;28;20279;-78
2023/01/11 08:48:12;;;;;;;4.53;1.75;;;22.80;99.90;;;;;;5087673;28;20199;-79
2023/01/11 08:50:43;;;;;;;4.93;2.28;;;22.80;99.90;;;;;;5089809;28;20267;-80
2023/01/11 08:53:14;;;;;;;5.10;1.77;;;22.80;99.90;;;;;;5073493;28;20201;-79
2023/01/11 08:55:50;;;;;;;5.65;1.83;;;22.70;99.90;;;;;;5071735;28;20195;-78
2023/01/11 08:58:22;;;;;;;4.50;1.73;;;22.70;99.90;;;;;;5076540;28;20226;-80
2023/01/11 09:00:53;;;;;;;4.18;2.00;;;22.70;99.90;;;;;;5088362;28;20655;-79
2023/01/11 09:03:24;;;;;;;3.47;1.85;;;22.60;99.90;;;;;;5085834;28;20227;-79
2023/01/11 09:05:55;;;;;;;6.15;1.90;;;22.60;99.90;;;;;;5078699;28;20192;-78
2023/01/11 09:08:27;;;;;;;5.20;2.17;;;22.60;99.90;;;;;;5078935;28;20196;-77
2023/01/11 09:11:00;;;;;;;6.88;1.90;;;22.50;99.90;;;;;;5086780;28;20203;-79
2023/01/11 09:13:31;;;;;;;4.53;1.70;;;22.50;99.90;;;;;;5094338;28;20197;-78
2023/01/11 09:16:02;;;;;;;4.85;1.90;;;22.50;99.90;;;;;;5092438;28;20192;-79
2023/01/11 09:18:33;;;;;;;5.65;1.98;;;22.50;99.90;;;;;;5087651;28;20195;-79
2023/01/11 09:21:04;;;;;;;4.43;1.70;;;22.40;99.90;;;;;;5095825;28;20196;-79
2023/01/11 09:23:36;;;;;;;4.65;1.80;;;22.40;99.90;;;;;;5092675;28;20212;-78
2023/01/11 09:26:09;;;;;;;6.85;2.25;;;22.40;99.90;;;;;;5093436;28;20265;-79
2023/01/11 09:28:40;;;;;;;7.35;2.30;;;22.40;99.90;;;;;;5085145;28;20188;-79
2023/01/11 09:31:12;;;;;;;8.73;2.40;;;22.30;99.90;;;;;;5092483;28;20200;-79
2023/01/11 09:33:43;;;;;;;4.50;1.90;;;22.30;99.90;;;;;;5092155;28;20227;-80
2023/01/11 09:36:16;;;;;;;5.07;2.22;;;22.30;99.90;;;;;;5092123;28;20192;-79
2023/01/11 09:38:49;;;;;;;4.68;1.90;;;22.30;99.90;;;;;;5093723;28;20192;-78
2023/01/11 09:41:34;;;;;;;3.78;1.77;;;22.20;99.90;;;;;;5091781;28;20227;-78
2023/01/11 09:44:13;;;;;;;5.18;2.22;;;22.20;99.90;;;;;;5095039;28;20223;-78
2023/01/11 09:46:47;;;;;;;6.88;1.63;;;22.20;99.90;;;;;;5094719;28;20204;-81
2023/01/11 09:49:22;;;;;;;4.25;1.85;;;22.20;99.90;;;;;;5093782;28;20251;-80
2023/01/11 09:51:57;;;;;;;4.38;1.75;;;22.10;99.90;;;;;;5083582;28;20236;-80
2023/01/11 09:54:30;;;;;;;9.35;2.25;;;22.10;99.90;;;;;;5088762;28;20389;-79
2023/01/11 09:57:12;;;;;;;4.57;1.83;;;22.10;99.90;;;;;;5089882;28;20201;-79
2023/01/11 09:59:53;;;;;;;7.53;2.10;;;22.10;99.90;;;;;;5084350;28;20204;-79
2023/01/11 10:02:33;;;;;;;7.88;2.10;;;22.10;99.90;;;;;;5092440;28;20224;-79
2023/01/11 10:05:36;;;;;;;7.57;2.10;;;22.10;99.90;;;;;;5095950;28;20224;-78
2023/01/11 10:08:26;;;;;;;6.18;2.00;;;22.10;99.90;;;;;;5044736;28;20206;-79
2023/01/11 10:11:06;;;;;;;5.13;1.92;;;22.10;99.90;;;;;;5082676;28;20562;-79
2023/01/11 10:13:52;;;;;;;9.50;2.30;;;22.10;99.90;;;;;;5093485;28;20219;-80
2023/01/11 10:16:33;;;;;;;8.15;2.17;;;22.10;99.90;;;;;;5088235;28;20212;-79
2023/01/11 10:19:17;;;;;;;7.60;1.98;;;22.10;99.90;;;;;;5094520;28;20594;-79
2023/01/11 10:21:54;;;;;;;6.28;1.90;;;22.10;99.90;;;;;;5092451;28;20254;-78
2023/01/11 10:24:29;;;;;;;5.90;1.75;;;22.00;99.90;;;;;;5093302;28;20212;-78
2023/01/11 10:27:07;;;;;;;8.35;2.05;;;22.00;99.90;;;;;;5087066;28;20265;-80
2023/01/11 10:29:57;;;;;;;6.70;1.90;;;22.00;99.90;;;;;;5093745;28;20198;-79
2023/01/11 10:32:51;;;;;;;5.68;1.98;;;22.00;99.90;;;;;;5091526;28;20198;-79
2023/01/11 10:35:44;;;;;;;7.43;1.90;;;22.00;99.90;;;;;;5088730;28;20192;-79
2023/01/11 10:38:41;;;;;;;6.25;1.80;;;22.00;99.90;;;;;;5090598;28;20211;-79
2023/01/11 10:41:24;;;;;;;6.75;1.90;;;22.00;99.90;;;;;;5091332;28;20301;-79
2023/01/11 10:44:06;;;;;;;6.75;1.90;;;22.00;99.90;;;;;;5092471;28;20319;-79
2023/01/11 10:46:42;;;;;;;7.05;2.00;;;21.90;99.90;;;;;;5093918;28;20192;-80
2023/01/11 10:49:36;;;;;;;7.82;2.25;;;21.90;99.90;;;;;;5083943;28;20219;-79
2023/01/11 10:52:29;;;;;;;8.27;2.15;;;21.90;99.90;;;;;;5089864;28;20234;-80
2023/01/11 10:55:01;;;;;;;7.35;1.77;;;21.80;99.90;;;;;;5077106;28;20546;-79
2023/01/11 10:57:47;;;;;;;6.43;1.92;;;21.80;99.90;;;;;;5095008;28;20692;-78
2023/01/11 11:00:32;;;;;;;4.93;1.73;;;21.80;99.90;;;;;;5090609;28;20192;-79
2023/01/11 11:03:45;;;;;;;6.85;1.90;;;21.80;99.90;;;;;;5094383;28;20617;-79
2023/01/11 11:06:24;;;;;;;8.43;1.73;;;21.80;99.90;;;;;;5088780;28;20237;-79
2023/01/11 11:09:02;;;;;;;6.53;1.90;;;21.80;99.90;;;;;;5085642;28;20286;-78
2023/01/11 11:11:37;;;;;;;4.60;1.48;;;21.70;99.90;;;;;;5092604;28;20223;-79
2023/01/11 11:14:15;;;;;;;2.92;1.60;;;21.70;99.90;;;;;;5093525;28;20540;-80
2023/01/11 11:17:00;;;;;;;5.18;1.98;;;21.70;99.90;;;;;;5093122;28;20243;-79
2023/01/11 11:19:35;;;;;;;9.13;2.30;;;21.70;99.90;;;;;;5094438;28;20559;-82
2023/01/11 11:22:07;;;;;;;5.75;1.75;;;21.70;99.90;;;;;;5093358;28;20183;-80
2023/01/11 11:24:42;;;;;;;3.85;1.90;;;21.70;99.90;;;;;;5089706;28;20290;-80
2023/01/11 11:27:22;;;;;;;5.20;1.75;;;21.60;99.90;;;;;;5094265;28;20194;-81
2023/01/11 11:29:56;;;;;;;5.93;1.90;;;21.60;99.90;;;;;;5094236;28;20702;-79
2023/01/11 11:32:31;;;;;;;8.20;2.10;;;21.60;99.90;;;;;;5093990;28;20188;-80
2023/01/11 11:35:06;;;;;;;3.75;1.65;;;21.60;99.90;;;;;;5093040;28;20195;-80
2023/01/11 11:37:42;;;;;;;3.55;1.80;;;21.60;99.90;;;;;;5094221;28;20188;-80
2023/01/11 11:40:32;;;;;;;8.15;2.10;;;21.60;99.90;;;;;;5093702;28;20188;-80
2023/01/11 11:43:18;;;;;;;4.57;1.88;;;21.60;99.90;;;;;;5087912;28;20200;-80
2023/01/11 11:45:56;;;;;;;4.07;1.70;;;21.50;99.90;;;;;;5093955;28;20216;-79
2023/01/11 11:48:30;;;;;;;8.77;2.10;;;21.50;99.90;;;;;;5093860;28;20192;-79
2023/01/11 11:51:05;;;;;;;7.60;2.05;;;21.50;99.90;;;;;;5093370;28;20271;-80
2023/01/11 11:53:41;;;;;;;4.85;1.73;;;21.50;99.90;;;;;;5093814;28;20202;-80
2023/01/11 11:56:26;;;;;;;4.32;1.83;;;21.50;99.90;;;;;;5093741;28;20279;-80
2023/01/11 11:58:58;;;;;;;6.50;1.90;;;21.50;99.90;;;;;;5093516;28;20210;-80
2023/01/11 12:01:32;;;;;;;4.80;1.75;;;21.50;99.90;;;;;;5093142;28;20282;-79
2023/01/11 12:04:06;;;;;;;4.47;1.63;;;21.50;99.90;;;;;;5073137;28;20653;-79
2023/01/11 12:06:39;;;;;;;5.78;1.60;;;21.50;99.90;;;;;;5073277;28;20193;-79
2023/01/11 12:09:15;;;;;;;7.95;2.13;;;21.50;99.90;;;;;;5073587;28;20267;-80
2023/01/11 12:11:54;;;;;;;5.53;1.80;;;21.50;99.90;;;;;;5086317;28;20187;-80
2023/01/11 12:14:28;;;;;;;8.00;1.80;;;21.60;99.90;;;;;;5093519;28;20283;-80
2023/01/11 12:17:00;;;;;;;6.72;1.92;;;21.60;99.90;;;;;;5093232;28;20195;-79
2023/01/11 12:19:36;;;;;;;8.02;1.83;;;21.60;99.90;;;;;;5093241;28;20184;-79
2023/01/11 12:22:20;;;;;;;3.92;1.70;;;21.60;99.90;;;;;;5093059;28;20188;-81
2023/01/11 12:25:05;;;;;;;8.13;2.75;;;21.60;99.90;;;;;;5093073;28;20261;-79
2023/01/11 12:27:44;;;;;;;9.45;2.13;;;21.70;99.90;;;;;;5087348;28;20647;-80
2023/01/11 12:30:32;;;;;;;5.22;1.73;;;21.70;99.90;;;;;;5092371;28;20676;-79
2023/01/11 12:33:31;;;;;;;6.43;1.75;;;21.70;99.90;;;;;;5088442;28;20200;-79
2023/01/11 12:36:07;;;;;;;7.22;2.10;;;21.70;99.90;;;;;;5089103;28;20200;-79
2023/01/11 12:39:01;;;;;;;5.25;1.80;;;21.70;99.90;;;;;;5092845;28;20325;-79
2023/01/11 12:41:53;;;;;;;6.20;1.70;;;21.70;99.90;;;;;;5092998;28;20196;-80
2023/01/11 12:44:52;;;;;;;5.97;2.25;;;21.70;99.90;;;;;;5072872;28;20690;-79
2023/01/11 12:47:51;;;;;;;4.53;1.60;;;21.70;99.90;;;;;;5096509;28;20235;-78
2023/01/11 12:50:26;;;;;;;7.40;2.10;;;21.80;99.90;;;;;;5093038;28;20573;-78
2023/01/11 12:53:12;;;;;;;8.02;2.08;;;21.70;99.90;;;;;;5096653;28;20574;-79
2023/01/11 12:55:57;;;;;;;5.57;1.73;;;21.80;99.90;;;;;;5097205;28;20555;-79
2023/01/11 12:58:36;;;;;;;4.50;1.83;;;21.80;99.90;;;;;;5086178;28;20189;-79
2023/01/11 13:01:32;;;;;;;4.97;2.00;;;21.80;99.90;;;;;;5079103;28;20279;-79
2023/01/11 13:04:41;;;;;;;6.20;1.90;;;21.80;99.90;;;;;;5094743;28;20196;-78
2023/01/11 13:07:22;;;;;;;6.43;1.80;;;21.80;99.90;;;;;;5085103;28;20210;-79
2023/01/11 13:10:04;;;;;;;6.07;1.98;;;21.80;99.90;;;;;;5095744;28;20210;-79
2023/01/11 13:12:44;;;;;;;5.93;2.03;;;21.80;99.90;;;;;;5095877;28;20208;-79
2023/01/11 13:15:28;;;;;;;4.32;1.70;;;21.80;99.90;;;;;;5096352;28;20283;-80
2023/01/11 13:18:05;;;;;;;6.60;1.80;;;21.80;99.90;;;;;;5077162;28;20243;-80
2023/01/11 13:20:46;;;;;;;8.30;1.77;;;21.80;99.90;;;;;;5092231;28;20201;-79
2023/01/11 13:23:24;;;;;;;6.47;2.20;;;21.80;99.90;;;;;;5092175;28;20196;-79
2023/01/11 13:25:57;;;;;;;3.83;1.48;;;21.80;99.90;;;;;;5091128;28;20208;-79
2023/01/11 13:28:37;;;;;;;6.00;2.10;;;21.80;99.90;;;;;;5095962;28;20184;-80
2023/01/11 13:31:13;;;;;;;6.10;1.90;;;21.80;99.90;;;;;;5096374;28;20200;-79
2023/01/11 13:33:49;;;;;;;5.18;1.77;;;21.80;99.90;;;;;;5090888;28;20725;-81
2023/01/11 13:36:24;;;;;;;6.75;1.88;;;21.80;99.90;;;;;;5084839;28;20184;-79
2023/01/11 13:39:01;;;;;;;10.02;2.10;;;21.70;99.90;;;;;;5095854;28;20282;-79
2023/01/11 13:41:40;;;;;;;5.63;1.90;;;21.70;99.90;;;;;;5096098;28;20546;-79
2023/01/11 13:44:20;;;;;;;5.43;1.85;;;21.80;99.90;;;;;;5096583;28;20192;-79
2023/01/11 13:47:04;;;;;;;6.57;1.90;;;21.70;99.90;;;;;;5095752;28;20218;-79
2023/01/11 13:49:49;;;;;;;4.68;1.45;;;21.70;99.90;;;;;;5094153;28;20206;-79
2023/01/11 13:52:24;;;;;;;5.85;1.92;;;21.80;99.90;;;;;;5095652;28;20223;-79
2023/01/11 13:55:02;;;;;;;5.35;1.77;;;21.70;99.90;;;;;;5093215;28;20199;-79
2023/01/11 13:57:42;;;;;;;5.72;1.80;;;21.70;99.90;;;;;;5082169;28;20570;-79
2023/01/11 14:00:22;;;;;;;5.93;1.98;;;21.70;99.90;;;;;;5095674;28;20214;-78